sensor_id;sensor_type;location;lat;lon;timestamp;P1;durP1;ratioP1;P2;durP2;ratioP2
72797;SDS011;61084;55.816;37.036;2023-03-14T00:01:15;5.00;;;1.67;;
72797;SDS011;61084;55.816;37.036;2023-03-14T00:03:43;3.00;;;1.38;;
72797;SDS011;61084;55.816;37.036;2023-03-14T00:06:10;5.13;;;1.48;;
72797;SDS011;61084;55.816;37.036;2023-03-14T00:08:36;4.00;;;1.45;;
72797;SDS011;61084;55.816;37.036;2023-03-14T00:11:13;5.50;;;1.35;;
72797;SDS011;61084;55.816;37.036;2023-03-14T00:13:41;4.53;;;1.00;;
72797;SDS011;61084;55.816;37.036;2023-03-14T00:16:09;3.03;;;1.10;;
72797;SDS011;61084;55.816;37.036;2023-03-14T00:18:36;4.03;;;1.38;;
72797;SDS011;61084;55.816;37.036;2023-03-14T00:21:04;2.60;;;1.20;;
72797;SDS011;61084;55.816;37.036;2023-03-14T00:23:31;2.20;;;1.15;;
72797;SDS011;61084;55.816;37.036;2023-03-14T00:26:02;2.97;;;1.38;;
72797;SDS011;61084;55.816;37.036;2023-03-14T00:28:30;2.47;;;1.10;;
72797;SDS011;61084;55.816;37.036;2023-03-14T00:30:56;2.88;;;1.33;;
72797;SDS011;61084;55.816;37.036;2023-03-14T00:33:22;3.47;;;1.30;;
72797;SDS011;61084;55.816;37.036;2023-03-14T00:35:55;4.05;;;1.48;;
72797;SDS011;61084;55.816;37.036;2023-03-14T00:38:22;6.13;;;1.20;;
72797;SDS011;61084;55.816;37.036;2023-03-14T00:40:50;3.55;;;1.13;;
72797;SDS011;61084;55.816;37.036;2023-03-14T00:43:16;4.10;;;1.35;;
72797;SDS011;61084;55.816;37.036;2023-03-14T00:45:43;2.03;;;1.02;;
72797;SDS011;61084;55.816;37.036;2023-03-14T00:48:09;3.10;;;1.00;;
72797;SDS011;61084;55.816;37.036;2023-03-14T00:50:35;4.40;;;1.00;;
72797;SDS011;61084;55.816;37.036;2023-03-14T00:53:01;5.57;;;1.10;;
72797;SDS011;61084;55.816;37.036;2023-03-14T00:55:27;3.92;;;0.90;;
72797;SDS011;61084;55.816;37.036;2023-03-14T00:57:53;5.15;;;1.10;;
72797;SDS011;61084;55.816;37.036;2023-03-14T01:00:18;1.75;;;0.98;;
72797;SDS011;61084;55.816;37.036;2023-03-14T01:02:44;3.88;;;1.27;;
72797;SDS011;61084;55.816;37.036;2023-03-14T01:05:10;2.10;;;1.15;;
72797;SDS011;61084;55.816;37.036;2023-03-14T01:07:36;2.80;;;0.77;;
72797;SDS011;61084;55.816;37.036;2023-03-14T01:10:05;2.25;;;1.33;;
72797;SDS011;61084;55.816;37.036;2023-03-14T01:12:31;2.40;;;1.10;;
72797;SDS011;61084;55.816;37.036;2023-03-14T01:14:57;2.95;;;1.40;;
72797;SDS011;61084;55.816;37.036;2023-03-14T01:17:23;3.97;;;1.48;;
72797;SDS011;61084;55.816;37.036;2023-03-14T01:19:49;4.40;;;1.60;;
72797;SDS011;61084;55.816;37.036;2023-03-14T01:22:15;6.50;;;1.13;;
72797;SDS011;61084;55.816;37.036;2023-03-14T01:24:40;4.97;;;1.63;;
72797;SDS011;61084;55.816;37.036;2023-03-14T01:27:06;3.60;;;1.27;;
72797;SDS011;61084;55.816;37.036;2023-03-14T01:29:32;3.28;;;1.42;;
72797;SDS011;61084;55.816;37.036;2023-03-14T01:31:58;3.67;;;1.52;;
72797;SDS011;61084;55.816;37.036;2023-03-14T01:34:24;5.03;;;1.73;;
72797;SDS011;61084;55.816;37.036;2023-03-14T01:36:50;3.30;;;1.42;;
72797;SDS011;61084;55.816;37.036;2023-03-14T01:39:16;4.60;;;1.58;;
72797;SDS011;61084;55.816;37.036;2023-03-14T01:41:42;5.63;;;2.08;;
72797;SDS011;61084;55.816;37.036;2023-03-14T01:44:09;4.60;;;1.52;;
72797;SDS011;61084;55.816;37.036;2023-03-14T01:46:39;3.63;;;1.48;;
72797;SDS011;61084;55.816;37.036;2023-03-14T01:49:18;4.20;;;1.60;;
72797;SDS011;61084;55.816;37.036;2023-03-14T01:54:58;3.92;;;1.45;;
72797;SDS011;61084;55.816;37.036;2023-03-14T01:57:32;4.45;;;1.52;;
72797;SDS011;61084;55.816;37.036;2023-03-14T02:00:04;4.07;;;1.58;;
72797;SDS011;61084;55.816;37.036;2023-03-14T02:02:49;4.63;;;1.90;;
72797;SDS011;61084;55.816;37.036;2023-03-14T02:05:23;3.65;;;1.75;;
72797;SDS011;61084;55.816;37.036;2023-03-14T02:08:06;3.25;;;1.38;;
72797;SDS011;61084;55.816;37.036;2023-03-14T02:10:43;5.07;;;2.13;;
72797;SDS011;61084;55.816;37.036;2023-03-14T02:13:11;3.05;;;1.63;;
72797;SDS011;61084;55.816;37.036;2023-03-14T02:15:45;2.97;;;1.90;;
72797;SDS011;61084;55.816;37.036;2023-03-14T02:18:31;3.80;;;2.13;;
72797;SDS011;61084;55.816;37.036;2023-03-14T02:29:39;4.55;;;2.15;;
72797;SDS011;61084;55.816;37.036;2023-03-14T02:32:12;6.25;;;2.10;;
72797;SDS011;61084;55.816;37.036;2023-03-14T02:34:40;4.20;;;2.00;;
72797;SDS011;61084;55.816;37.036;2023-03-14T02:37:08;5.18;;;1.88;;
72797;SDS011;61084;55.816;37.036;2023-03-14T02:39:39;7.00;;;2.15;;
72797;SDS011;61084;55.816;37.036;2023-03-14T02:42:10;4.05;;;2.28;;
72797;SDS011;61084;55.816;37.036;2023-03-14T02:44:46;4.18;;;2.03;;
72797;SDS011;61084;55.816;37.036;2023-03-14T02:47:14;5.05;;;2.60;;
72797;SDS011;61084;55.816;37.036;2023-03-14T02:49:40;4.65;;;2.70;;
72797;SDS011;61084;55.816;37.036;2023-03-14T02:52:06;4.43;;;2.22;;
72797;SDS011;61084;55.816;37.036;2023-03-14T02:54:32;4.22;;;2.17;;
72797;SDS011;61084;55.816;37.036;2023-03-14T02:56:58;5.32;;;2.38;;
72797;SDS011;61084;55.816;37.036;2023-03-14T02:59:23;5.82;;;2.60;;
72797;SDS011;61084;55.816;37.036;2023-03-14T03:01:54;4.00;;;2.17;;
72797;SDS011;61084;55.816;37.036;2023-03-14T03:04:20;5.43;;;2.10;;
72797;SDS011;61084;55.816;37.036;2023-03-14T03:06:45;3.67;;;2.38;;
72797;SDS011;61084;55.816;37.036;2023-03-14T03:09:12;6.30;;;2.58;;
72797;SDS011;61084;55.816;37.036;2023-03-14T03:11:37;3.85;;;2.38;;
72797;SDS011;61084;55.816;37.036;2023-03-14T03:14:04;5.00;;;2.80;;
72797;SDS011;61084;55.816;37.036;2023-03-14T03:16:30;8.43;;;2.85;;
72797;SDS011;61084;55.816;37.036;2023-03-14T03:18:56;5.25;;;2.90;;
72797;SDS011;61084;55.816;37.036;2023-03-14T03:21:22;6.63;;;2.95;;
72797;SDS011;61084;55.816;37.036;2023-03-14T03:23:49;4.72;;;2.65;;
72797;SDS011;61084;55.816;37.036;2023-03-14T03:26:16;6.88;;;2.80;;
72797;SDS011;61084;55.816;37.036;2023-03-14T03:28:41;5.45;;;2.45;;
72797;SDS011;61084;55.816;37.036;2023-03-14T03:31:09;5.47;;;2.30;;
72797;SDS011;61084;55.816;37.036;2023-03-14T03:33:37;7.40;;;2.60;;
72797;SDS011;61084;55.816;37.036;2023-03-14T03:36:03;5.55;;;2.75;;
72797;SDS011;61084;55.816;37.036;2023-03-14T03:38:33;4.80;;;2.70;;
72797;SDS011;61084;55.816;37.036;2023-03-14T03:41:03;5.82;;;2.97;;
72797;SDS011;61084;55.816;37.036;2023-03-14T03:43:30;4.85;;;2.70;;
72797;SDS011;61084;55.816;37.036;2023-03-14T03:45:57;4.57;;;2.88;;
72797;SDS011;61084;55.816;37.036;2023-03-14T03:48:23;5.13;;;2.30;;
72797;SDS011;61084;55.816;37.036;2023-03-14T03:50:49;5.70;;;2.85;;
72797;SDS011;61084;55.816;37.036;2023-03-14T03:53:19;5.63;;;3.05;;
72797;SDS011;61084;55.816;37.036;2023-03-14T03:55:44;6.38;;;2.90;;
72797;SDS011;61084;55.816;37.036;2023-03-14T03:58:10;6.25;;;3.00;;
72797;SDS011;61084;55.816;37.036;2023-03-14T04:00:36;8.48;;;3.40;;
72797;SDS011;61084;55.816;37.036;2023-03-14T04:03:02;4.18;;;2.78;;
72797;SDS011;61084;55.816;37.036;2023-03-14T04:05:28;4.82;;;2.85;;
72797;SDS011;61084;55.816;37.036;2023-03-14T04:08:00;5.53;;;2.75;;
72797;SDS011;61084;55.816;37.036;2023-03-14T04:10:28;4.50;;;2.38;;
72797;SDS011;61084;55.816;37.036;2023-03-14T04:13:17;7.07;;;3.30;;
72797;SDS011;61084;55.816;37.036;2023-03-14T04:15:47;12.80;;;3.30;;
72797;SDS011;61084;55.816;37.036;2023-03-14T04:18:18;5.60;;;3.38;;
72797;SDS011;61084;55.816;37.036;2023-03-14T04:20:45;5.43;;;3.45;;
72797;SDS011;61084;55.816;37.036;2023-03-14T04:23:11;8.82;;;3.40;;
72797;SDS011;61084;55.816;37.036;2023-03-14T04:25:37;7.07;;;3.15;;
72797;SDS011;61084;55.816;37.036;2023-03-14T04:28:04;5.82;;;3.08;;
72797;SDS011;61084;55.816;37.036;2023-03-14T04:30:31;5.45;;;2.90;;
72797;SDS011;61084;55.816;37.036;2023-03-14T04:33:05;6.43;;;3.72;;
72797;SDS011;61084;55.816;37.036;2023-03-14T04:35:36;5.60;;;3.30;;
72797;SDS011;61084;55.816;37.036;2023-03-14T04:38:07;5.47;;;2.97;;
72797;SDS011;61084;55.816;37.036;2023-03-14T04:40:36;7.22;;;3.70;;
72797;SDS011;61084;55.816;37.036;2023-03-14T04:43:04;4.40;;;2.90;;
72797;SDS011;61084;55.816;37.036;2023-03-14T04:45:30;7.32;;;3.42;;
72797;SDS011;61084;55.816;37.036;2023-03-14T04:47:58;8.27;;;3.55;;
72797;SDS011;61084;55.816;37.036;2023-03-14T04:50:24;6.65;;;3.22;;
72797;SDS011;61084;55.816;37.036;2023-03-14T04:52:50;6.03;;;3.65;;
72797;SDS011;61084;55.816;37.036;2023-03-14T04:55:16;6.63;;;3.25;;
72797;SDS011;61084;55.816;37.036;2023-03-14T04:57:42;5.40;;;3.35;;
72797;SDS011;61084;55.816;37.036;2023-03-14T05:00:11;7.35;;;3.70;;
72797;SDS011;61084;55.816;37.036;2023-03-14T05:02:49;5.28;;;3.53;;
72797;SDS011;61084;55.816;37.036;2023-03-14T05:05:22;6.93;;;3.97;;
72797;SDS011;61084;55.816;37.036;2023-03-14T05:08:11;5.32;;;3.15;;
72797;SDS011;61084;55.816;37.036;2023-03-14T05:10:37;6.40;;;3.63;;
72797;SDS011;61084;55.816;37.036;2023-03-14T05:13:14;8.75;;;3.60;;
72797;SDS011;61084;55.816;37.036;2023-03-14T05:15:49;7.05;;;3.40;;
72797;SDS011;61084;55.816;37.036;2023-03-14T05:18:39;6.38;;;3.33;;
72797;SDS011;61084;55.816;37.036;2023-03-14T05:21:27;6.10;;;3.42;;
72797;SDS011;61084;55.816;37.036;2023-03-14T05:24:11;5.68;;;3.22;;
72797;SDS011;61084;55.816;37.036;2023-03-14T05:26:57;8.15;;;3.17;;
72797;SDS011;61084;55.816;37.036;2023-03-14T05:29:48;6.25;;;3.28;;
72797;SDS011;61084;55.816;37.036;2023-03-14T05:32:40;8.63;;;3.40;;
72797;SDS011;61084;55.816;37.036;2023-03-14T05:35:23;5.70;;;3.58;;
72797;SDS011;61084;55.816;37.036;2023-03-14T05:38:06;6.68;;;3.30;;
72797;SDS011;61084;55.816;37.036;2023-03-14T05:40:50;6.25;;;2.60;;
72797;SDS011;61084;55.816;37.036;2023-03-14T05:43:36;6.50;;;3.30;;
72797;SDS011;61084;55.816;37.036;2023-03-14T05:46:20;6.47;;;3.55;;
72797;SDS011;61084;55.816;37.036;2023-03-14T05:49:04;5.32;;;3.40;;
72797;SDS011;61084;55.816;37.036;2023-03-14T05:52:02;9.90;;;3.10;;
72797;SDS011;61084;55.816;37.036;2023-03-14T05:54:34;6.43;;;3.10;;
72797;SDS011;61084;55.816;37.036;2023-03-14T05:57:12;5.80;;;3.22;;
72797;SDS011;61084;55.816;37.036;2023-03-14T05:59:55;6.38;;;3.30;;
72797;SDS011;61084;55.816;37.036;2023-03-14T06:02:47;9.13;;;3.33;;
72797;SDS011;61084;55.816;37.036;2023-03-14T06:05:21;5.28;;;3.10;;
72797;SDS011;61084;55.816;37.036;2023-03-14T06:07:48;5.82;;;3.05;;
72797;SDS011;61084;55.816;37.036;2023-03-14T06:10:15;7.60;;;3.58;;
72797;SDS011;61084;55.816;37.036;2023-03-14T06:12:40;6.53;;;2.92;;
72797;SDS011;61084;55.816;37.036;2023-03-14T06:15:06;6.45;;;3.10;;
72797;SDS011;61084;55.816;37.036;2023-03-14T06:17:33;6.50;;;3.22;;
72797;SDS011;61084;55.816;37.036;2023-03-14T06:20:04;6.47;;;3.03;;
72797;SDS011;61084;55.816;37.036;2023-03-14T06:22:30;5.28;;;3.13;;
72797;SDS011;61084;55.816;37.036;2023-03-14T06:24:56;5.68;;;3.15;;
72797;SDS011;61084;55.816;37.036;2023-03-14T06:27:24;6.90;;;3.47;;
72797;SDS011;61084;55.816;37.036;2023-03-14T06:29:53;5.93;;;2.78;;
72797;SDS011;61084;55.816;37.036;2023-03-14T06:32:19;6.18;;;2.83;;
72797;SDS011;61084;55.816;37.036;2023-03-14T06:34:48;5.50;;;2.28;;
72797;SDS011;61084;55.816;37.036;2023-03-14T06:37:14;7.13;;;3.13;;
72797;SDS011;61084;55.816;37.036;2023-03-14T06:39:40;9.18;;;3.30;;
72797;SDS011;61084;55.816;37.036;2023-03-14T06:42:14;7.25;;;3.58;;
72797;SDS011;61084;55.816;37.036;2023-03-14T06:44:41;5.88;;;3.30;;
72797;SDS011;61084;55.816;37.036;2023-03-14T06:47:07;6.18;;;3.72;;
72797;SDS011;61084;55.816;37.036;2023-03-14T06:49:34;5.60;;;3.30;;
72797;SDS011;61084;55.816;37.036;2023-03-14T06:52:01;7.03;;;3.80;;
72797;SDS011;61084;55.816;37.036;2023-03-14T06:54:28;6.43;;;3.42;;
72797;SDS011;61084;55.816;37.036;2023-03-14T06:56:54;9.00;;;3.85;;
72797;SDS011;61084;55.816;37.036;2023-03-14T06:59:20;6.88;;;3.88;;
72797;SDS011;61084;55.816;37.036;2023-03-14T07:01:48;7.95;;;3.75;;
72797;SDS011;61084;55.816;37.036;2023-03-14T07:04:16;7.22;;;3.75;;
72797;SDS011;61084;55.816;37.036;2023-03-14T07:06:46;8.45;;;4.13;;
72797;SDS011;61084;55.816;37.036;2023-03-14T07:09:13;8.85;;;4.18;;
72797;SDS011;61084;55.816;37.036;2023-03-14T07:11:47;6.82;;;3.65;;
72797;SDS011;61084;55.816;37.036;2023-03-14T07:14:13;8.30;;;3.50;;
72797;SDS011;61084;55.816;37.036;2023-03-14T07:16:39;8.38;;;3.40;;
72797;SDS011;61084;55.816;37.036;2023-03-14T07:19:06;6.70;;;3.30;;
72797;SDS011;61084;55.816;37.036;2023-03-14T07:21:32;9.25;;;3.50;;
72797;SDS011;61084;55.816;37.036;2023-03-14T07:24:03;8.35;;;3.50;;
72797;SDS011;61084;55.816;37.036;2023-03-14T07:26:30;6.20;;;3.28;;
72797;SDS011;61084;55.816;37.036;2023-03-14T07:28:56;8.45;;;3.35;;
72797;SDS011;61084;55.816;37.036;2023-03-14T07:31:22;9.05;;;2.88;;
72797;SDS011;61084;55.816;37.036;2023-03-14T07:33:49;8.68;;;3.30;;
72797;SDS011;61084;55.816;37.036;2023-03-14T07:36:16;6.57;;;3.05;;
72797;SDS011;61084;55.816;37.036;2023-03-14T07:38:43;10.63;;;3.28;;
72797;SDS011;61084;55.816;37.036;2023-03-14T07:41:12;5.10;;;2.80;;
72797;SDS011;61084;55.816;37.036;2023-03-14T07:43:57;8.48;;;3.45;;
72797;SDS011;61084;55.816;37.036;2023-03-14T07:46:22;5.72;;;3.17;;
72797;SDS011;61084;55.816;37.036;2023-03-14T07:48:48;7.07;;;3.10;;
72797;SDS011;61084;55.816;37.036;2023-03-14T07:51:14;6.75;;;3.10;;
72797;SDS011;61084;55.816;37.036;2023-03-14T07:53:40;8.02;;;3.35;;
72797;SDS011;61084;55.816;37.036;2023-03-14T07:56:06;6.05;;;2.58;;
72797;SDS011;61084;55.816;37.036;2023-03-14T07:58:32;7.47;;;3.13;;
72797;SDS011;61084;55.816;37.036;2023-03-14T08:00:58;8.98;;;3.20;;
72797;SDS011;61084;55.816;37.036;2023-03-14T08:03:24;6.85;;;3.08;;
72797;SDS011;61084;55.816;37.036;2023-03-14T08:05:50;6.28;;;3.00;;
72797;SDS011;61084;55.816;37.036;2023-03-14T08:08:17;5.88;;;3.25;;
72797;SDS011;61084;55.816;37.036;2023-03-14T08:10:43;8.63;;;3.75;;
72797;SDS011;61084;55.816;37.036;2023-03-14T08:13:09;7.53;;;3.47;;
72797;SDS011;61084;55.816;37.036;2023-03-14T08:15:35;6.95;;;3.33;;
72797;SDS011;61084;55.816;37.036;2023-03-14T08:18:02;4.50;;;2.78;;
72797;SDS011;61084;55.816;37.036;2023-03-14T08:20:29;7.38;;;3.35;;
72797;SDS011;61084;55.816;37.036;2023-03-14T08:22:56;7.95;;;3.53;;
72797;SDS011;61084;55.816;37.036;2023-03-14T08:25:26;6.07;;;3.17;;
72797;SDS011;61084;55.816;37.036;2023-03-14T08:27:52;7.68;;;3.80;;
72797;SDS011;61084;55.816;37.036;2023-03-14T08:30:19;8.50;;;3.65;;
72797;SDS011;61084;55.816;37.036;2023-03-14T08:32:46;10.40;;;3.60;;
72797;SDS011;61084;55.816;37.036;2023-03-14T08:35:12;6.75;;;3.22;;
72797;SDS011;61084;55.816;37.036;2023-03-14T08:37:39;6.90;;;4.38;;
72797;SDS011;61084;55.816;37.036;2023-03-14T08:40:05;9.15;;;3.22;;
72797;SDS011;61084;55.816;37.036;2023-03-14T08:42:32;7.38;;;3.28;;
72797;SDS011;61084;55.816;37.036;2023-03-14T08:44:58;7.10;;;3.53;;
72797;SDS011;61084;55.816;37.036;2023-03-14T08:47:24;7.82;;;3.50;;
72797;SDS011;61084;55.816;37.036;2023-03-14T08:49:50;7.70;;;3.50;;
72797;SDS011;61084;55.816;37.036;2023-03-14T08:52:16;7.30;;;3.67;;
72797;SDS011;61084;55.816;37.036;2023-03-14T08:54:45;6.88;;;3.33;;
72797;SDS011;61084;55.816;37.036;2023-03-14T08:57:11;7.90;;;3.38;;
72797;SDS011;61084;55.816;37.036;2023-03-14T08:59:37;7.00;;;3.35;;
72797;SDS011;61084;55.816;37.036;2023-03-14T09:02:03;7.78;;;3.13;;
72797;SDS011;61084;55.816;37.036;2023-03-14T09:04:29;6.25;;;2.97;;
72797;SDS011;61084;55.816;37.036;2023-03-14T09:06:56;7.80;;;3.40;;
72797;SDS011;61084;55.816;37.036;2023-03-14T09:09:23;4.95;;;3.00;;
72797;SDS011;61084;55.816;37.036;2023-03-14T09:11:56;5.60;;;3.40;;
72797;SDS011;61084;55.816;37.036;2023-03-14T09:14:22;4.72;;;2.85;;
72797;SDS011;61084;55.816;37.036;2023-03-14T09:16:49;5.53;;;2.47;;
72797;SDS011;61084;55.816;37.036;2023-03-14T09:19:16;5.22;;;3.25;;
72797;SDS011;61084;55.816;37.036;2023-03-14T09:21:41;8.13;;;3.65;;
72797;SDS011;61084;55.816;37.036;2023-03-14T09:24:07;6.82;;;3.20;;
72797;SDS011;61084;55.816;37.036;2023-03-14T09:26:33;10.98;;;3.78;;
72797;SDS011;61084;55.816;37.036;2023-03-14T09:28:59;8.30;;;3.20;;
72797;SDS011;61084;55.816;37.036;2023-03-14T09:31:24;9.40;;;3.47;;
72797;SDS011;61084;55.816;37.036;2023-03-14T09:33:50;10.15;;;3.63;;
72797;SDS011;61084;55.816;37.036;2023-03-14T09:36:16;5.35;;;3.10;;
72797;SDS011;61084;55.816;37.036;2023-03-14T09:38:42;7.47;;;3.55;;
72797;SDS011;61084;55.816;37.036;2023-03-14T09:41:12;9.65;;;3.85;;
72797;SDS011;61084;55.816;37.036;2023-03-14T09:43:43;7.53;;;3.08;;
72797;SDS011;61084;55.816;37.036;2023-03-14T09:46:12;5.22;;;3.15;;
72797;SDS011;61084;55.816;37.036;2023-03-14T09:51:06;4.35;;;3.03;;
72797;SDS011;61084;55.816;37.036;2023-03-14T09:53:43;7.72;;;3.85;;
72797;SDS011;61084;55.816;37.036;2023-03-14T09:56:15;5.07;;;2.88;;
72797;SDS011;61084;55.816;37.036;2023-03-14T09:58:43;7.15;;;3.13;;
72797;SDS011;61084;55.816;37.036;2023-03-14T10:01:14;6.57;;;3.35;;
72797;SDS011;61084;55.816;37.036;2023-03-14T10:03:43;7.60;;;3.38;;
72797;SDS011;61084;55.816;37.036;2023-03-14T10:06:12;5.82;;;3.40;;
72797;SDS011;61084;55.816;37.036;2023-03-14T10:08:42;6.90;;;3.13;;
72797;SDS011;61084;55.816;37.036;2023-03-14T10:11:12;6.45;;;3.30;;
72797;SDS011;61084;55.816;37.036;2023-03-14T10:13:48;10.18;;;3.67;;
72797;SDS011;61084;55.816;37.036;2023-03-14T10:16:37;10.48;;;3.60;;
72797;SDS011;61084;55.816;37.036;2023-03-14T10:19:10;7.70;;;3.80;;
72797;SDS011;61084;55.816;37.036;2023-03-14T10:21:38;7.85;;;4.10;;
72797;SDS011;61084;55.816;37.036;2023-03-14T10:27:26;6.78;;;3.35;;
72797;SDS011;61084;55.816;37.036;2023-03-14T10:29:58;6.25;;;3.63;;
72797;SDS011;61084;55.816;37.036;2023-03-14T10:32:33;11.55;;;3.92;;
72797;SDS011;61084;55.816;37.036;2023-03-14T10:37:31;6.47;;;3.03;;
72797;SDS011;61084;55.816;37.036;2023-03-14T10:40:00;11.48;;;3.33;;
72797;SDS011;61084;55.816;37.036;2023-03-14T10:42:48;5.70;;;2.60;;
72797;SDS011;61084;55.816;37.036;2023-03-14T10:50:40;6.00;;;3.20;;
72797;SDS011;61084;55.816;37.036;2023-03-14T10:56:23;8.75;;;3.05;;
72797;SDS011;61084;55.816;37.036;2023-03-14T10:58:52;6.82;;;3.42;;
72797;SDS011;61084;55.816;37.036;2023-03-14T11:07:04;8.65;;;3.33;;
72797;SDS011;61084;55.816;37.036;2023-03-14T11:09:42;5.32;;;3.10;;
72797;SDS011;61084;55.816;37.036;2023-03-14T11:14:43;6.60;;;3.00;;
72797;SDS011;61084;55.816;37.036;2023-03-14T11:17:22;7.22;;;3.20;;
72797;SDS011;61084;55.816;37.036;2023-03-14T11:23:14;5.10;;;3.08;;
72797;SDS011;61084;55.816;37.036;2023-03-14T11:29:02;8.40;;;3.40;;
72797;SDS011;61084;55.816;37.036;2023-03-14T11:31:34;6.38;;;2.75;;
72797;SDS011;61084;55.816;37.036;2023-03-14T11:34:10;5.07;;;2.90;;
72797;SDS011;61084;55.816;37.036;2023-03-14T11:39:17;6.20;;;2.60;;
72797;SDS011;61084;55.816;37.036;2023-03-14T11:41:45;5.15;;;2.63;;
72797;SDS011;61084;55.816;37.036;2023-03-14T11:44:27;3.83;;;2.67;;
72797;SDS011;61084;55.816;37.036;2023-03-14T11:47:06;6.82;;;2.60;;
72797;SDS011;61084;55.816;37.036;2023-03-14T11:49:53;4.97;;;1.90;;
72797;SDS011;61084;55.816;37.036;2023-03-14T11:57:51;5.70;;;2.55;;
72797;SDS011;61084;55.816;37.036;2023-03-14T12:00:23;6.53;;;2.60;;
72797;SDS011;61084;55.816;37.036;2023-03-14T12:03:01;7.78;;;3.03;;
72797;SDS011;61084;55.816;37.036;2023-03-14T12:05:56;5.80;;;2.85;;
72797;SDS011;61084;55.816;37.036;2023-03-14T12:11:15;7.55;;;2.88;;
72797;SDS011;61084;55.816;37.036;2023-03-14T12:13:48;7.28;;;2.78;;
72797;SDS011;61084;55.816;37.036;2023-03-14T12:16:25;4.13;;;2.30;;
72797;SDS011;61084;55.816;37.036;2023-03-14T12:19:15;5.63;;;2.70;;
72797;SDS011;61084;55.816;37.036;2023-03-14T12:22:05;5.80;;;2.40;;
72797;SDS011;61084;55.816;37.036;2023-03-14T12:24:38;7.30;;;2.53;;
72797;SDS011;61084;55.816;37.036;2023-03-14T12:27:10;5.95;;;2.70;;
72797;SDS011;61084;55.816;37.036;2023-03-14T12:30:00;7.65;;;3.08;;
72797;SDS011;61084;55.816;37.036;2023-03-14T12:32:27;4.97;;;2.67;;
72797;SDS011;61084;55.816;37.036;2023-03-14T12:34:53;6.80;;;3.00;;
72797;SDS011;61084;55.816;37.036;2023-03-14T12:43:00;5.90;;;3.10;;
72797;SDS011;61084;55.816;37.036;2023-03-14T12:45:32;7.55;;;3.13;;
72797;SDS011;61084;55.816;37.036;2023-03-14T12:48:09;6.05;;;3.10;;
72797;SDS011;61084;55.816;37.036;2023-03-14T12:50:53;6.68;;;2.97;;
72797;SDS011;61084;55.816;37.036;2023-03-14T12:59:05;5.28;;;2.63;;
72797;SDS011;61084;55.816;37.036;2023-03-14T13:01:34;9.82;;;2.75;;
72797;SDS011;61084;55.816;37.036;2023-03-14T13:04:07;5.55;;;2.55;;
72797;SDS011;61084;55.816;37.036;2023-03-14T13:06:46;6.10;;;2.88;;
72797;SDS011;61084;55.816;37.036;2023-03-14T13:09:34;5.88;;;2.90;;
72797;SDS011;61084;55.816;37.036;2023-03-14T13:12:11;8.57;;;2.92;;
72797;SDS011;61084;55.816;37.036;2023-03-14T13:14:44;5.68;;;2.58;;
72797;SDS011;61084;55.816;37.036;2023-03-14T13:17:14;3.53;;;2.30;;
72797;SDS011;61084;55.816;37.036;2023-03-14T13:19:44;4.32;;;2.05;;
72797;SDS011;61084;55.816;37.036;2023-03-14T13:22:22;6.45;;;2.38;;
72797;SDS011;61084;55.816;37.036;2023-03-14T13:24:58;4.75;;;2.25;;
72797;SDS011;61084;55.816;37.036;2023-03-14T13:27:35;4.63;;;2.55;;
72797;SDS011;61084;55.816;37.036;2023-03-14T13:30:05;5.50;;;2.22;;
72797;SDS011;61084;55.816;37.036;2023-03-14T13:32:46;5.60;;;2.53;;
72797;SDS011;61084;55.816;37.036;2023-03-14T13:37:43;4.40;;;2.05;;
72797;SDS011;61084;55.816;37.036;2023-03-14T13:40:18;4.45;;;2.65;;
72797;SDS011;61084;55.816;37.036;2023-03-14T13:43:01;7.25;;;2.42;;
72797;SDS011;61084;55.816;37.036;2023-03-14T13:45:44;5.88;;;2.80;;
72797;SDS011;61084;55.816;37.036;2023-03-14T13:48:13;5.90;;;2.28;;
72797;SDS011;61084;55.816;37.036;2023-03-14T13:50:44;5.28;;;2.38;;
72797;SDS011;61084;55.816;37.036;2023-03-14T13:53:18;5.93;;;3.20;;
72797;SDS011;61084;55.816;37.036;2023-03-14T13:55:44;8.25;;;3.45;;
72797;SDS011;61084;55.816;37.036;2023-03-14T13:58:13;10.00;;;2.95;;
72797;SDS011;61084;55.816;37.036;2023-03-14T14:01:02;5.10;;;2.20;;
72797;SDS011;61084;55.816;37.036;2023-03-14T14:03:44;5.53;;;2.83;;
72797;SDS011;61084;55.816;37.036;2023-03-14T14:14:12;4.63;;;2.80;;
72797;SDS011;61084;55.816;37.036;2023-03-14T14:16:44;4.10;;;2.20;;
72797;SDS011;61084;55.816;37.036;2023-03-14T14:19:12;4.45;;;2.38;;
72797;SDS011;61084;55.816;37.036;2023-03-14T14:24:05;5.68;;;2.53;;
72797;SDS011;61084;55.816;37.036;2023-03-14T14:26:31;6.05;;;2.40;;
72797;SDS011;61084;55.816;37.036;2023-03-14T14:29:04;4.82;;;2.33;;
72797;SDS011;61084;55.816;37.036;2023-03-14T14:31:31;5.95;;;2.28;;
72797;SDS011;61084;55.816;37.036;2023-03-14T14:34:03;3.70;;;1.98;;
72797;SDS011;61084;55.816;37.036;2023-03-14T14:36:30;5.05;;;2.00;;
72797;SDS011;61084;55.816;37.036;2023-03-14T14:41:32;6.43;;;2.50;;
72797;SDS011;61084;55.816;37.036;2023-03-14T14:44:00;4.95;;;2.50;;
72797;SDS011;61084;55.816;37.036;2023-03-14T14:46:30;10.68;;;4.35;;
72797;SDS011;61084;55.816;37.036;2023-03-14T14:48:58;5.47;;;3.22;;
72797;SDS011;61084;55.816;37.036;2023-03-14T14:51:34;5.97;;;2.85;;
72797;SDS011;61084;55.816;37.036;2023-03-14T14:54:18;4.05;;;2.53;;
72797;SDS011;61084;55.816;37.036;2023-03-14T14:57:01;5.18;;;2.63;;
72797;SDS011;61084;55.816;37.036;2023-03-14T14:59:29;4.65;;;2.50;;
72797;SDS011;61084;55.816;37.036;2023-03-14T15:01:59;5.10;;;2.35;;
72797;SDS011;61084;55.816;37.036;2023-03-14T15:04:27;4.88;;;2.53;;
72797;SDS011;61084;55.816;37.036;2023-03-14T15:06:56;5.65;;;2.85;;
72797;SDS011;61084;55.816;37.036;2023-03-14T15:09:22;5.97;;;2.55;;
72797;SDS011;61084;55.816;37.036;2023-03-14T15:11:49;5.30;;;2.38;;
72797;SDS011;61084;55.816;37.036;2023-03-14T15:14:15;7.20;;;2.45;;
72797;SDS011;61084;55.816;37.036;2023-03-14T15:16:41;3.72;;;2.40;;
72797;SDS011;61084;55.816;37.036;2023-03-14T15:19:19;7.55;;;2.13;;
72797;SDS011;61084;55.816;37.036;2023-03-14T15:21:47;4.90;;;2.70;;
72797;SDS011;61084;55.816;37.036;2023-03-14T15:24:12;4.93;;;2.45;;
72797;SDS011;61084;55.816;37.036;2023-03-14T15:26:38;7.53;;;2.63;;
72797;SDS011;61084;55.816;37.036;2023-03-14T15:29:04;5.70;;;2.58;;
72797;SDS011;61084;55.816;37.036;2023-03-14T15:31:33;5.90;;;2.72;;
72797;SDS011;61084;55.816;37.036;2023-03-14T15:34:01;4.07;;;2.25;;
72797;SDS011;61084;55.816;37.036;2023-03-14T15:36:28;4.28;;;2.50;;
72797;SDS011;61084;55.816;37.036;2023-03-14T15:38:56;5.97;;;2.90;;
72797;SDS011;61084;55.816;37.036;2023-03-14T15:41:24;4.43;;;2.28;;
72797;SDS011;61084;55.816;37.036;2023-03-14T15:43:50;4.40;;;2.20;;
72797;SDS011;61084;55.816;37.036;2023-03-14T15:46:17;5.13;;;2.00;;
72797;SDS011;61084;55.816;37.036;2023-03-14T15:48:47;4.35;;;2.20;;
72797;SDS011;61084;55.816;37.036;2023-03-14T15:51:14;3.92;;;2.33;;
72797;SDS011;61084;55.816;37.036;2023-03-14T15:53:40;7.38;;;3.33;;
72797;SDS011;61084;55.816;37.036;2023-03-14T15:56:12;6.50;;;2.60;;
72797;SDS011;61084;55.816;37.036;2023-03-14T15:58:39;5.15;;;2.50;;
72797;SDS011;61084;55.816;37.036;2023-03-14T16:01:07;6.90;;;2.45;;
72797;SDS011;61084;55.816;37.036;2023-03-14T16:03:36;5.20;;;2.75;;
72797;SDS011;61084;55.816;37.036;2023-03-14T16:06:02;6.47;;;3.00;;
72797;SDS011;61084;55.816;37.036;2023-03-14T16:08:28;6.85;;;2.80;;
72797;SDS011;61084;55.816;37.036;2023-03-14T16:10:57;5.13;;;2.88;;
72797;SDS011;61084;55.816;37.036;2023-03-14T16:13:24;5.57;;;2.42;;